sensor_id;sensor_type;location;lat;lon;timestamp;pressure;altitude;pressure_sealevel;temperature;humidity
8416;BME280;4245;42.120;24.732;2023-04-01T00:00:59;98463.34;;;11.63;89.92
8416;BME280;4245;42.120;24.732;2023-04-01T00:03:27;98453.84;;;11.60;90.37
8416;BME280;4245;42.120;24.732;2023-04-01T00:05:55;98450.81;;;11.44;93.08
8416;BME280;4245;42.120;24.732;2023-04-01T00:08:22;98450.06;;;11.32;95.42
8416;BME280;4245;42.120;24.732;2023-04-01T00:10:49;98455.91;;;11.26;95.58
8416;BME280;4245;42.120;24.732;2023-04-01T00:13:16;98464.81;;;11.16;97.22
8416;BME280;4245;42.120;24.732;2023-04-01T00:15:44;98464.81;;;11.16;96.90
8416;BME280;4245;42.120;24.732;2023-04-01T00:18:11;98471.94;;;11.15;96.22
8416;BME280;4245;42.120;24.732;2023-04-01T00:20:43;98461.50;;;10.82;98.03
8416;BME280;4245;42.120;24.732;2023-04-01T00:23:10;98461.94;;;10.45;100.00
8416;BME280;4245;42.120;24.732;2023-04-01T00:25:37;98465.28;;;10.48;100.00
8416;BME280;4245;42.120;24.732;2023-04-01T00:28:04;98469.66;;;10.37;100.00
8416;BME280;4245;42.120;24.732;2023-04-01T00:30:31;98474.03;;;10.27;100.00
8416;BME280;4245;42.120;24.732;2023-04-01T00:32:58;98464.94;;;10.41;100.00
8416;BME280;4245;42.120;24.732;2023-04-01T00:35:25;98465.41;;;10.46;100.00
8416;BME280;4245;42.120;24.732;2023-04-01T00:37:53;98460.78;;;10.59;100.00
8416;BME280;4245;42.120;24.732;2023-04-01T00:40:26;98460.00;;;10.68;100.00
8416;BME280;4245;42.120;24.732;2023-04-01T00:42:54;98457.81;;;10.73;100.00
8416;BME280;4245;42.120;24.732;2023-04-01T00:45:31;98462.91;;;10.65;100.00
8416;BME280;4245;42.120;24.732;2023-04-01T00:48:01;98468.28;;;10.75;100.00
8416;BME280;4245;42.120;24.732;2023-04-01T00:50:28;98459.03;;;10.69;100.00
8416;BME280;4245;42.120;24.732;2023-04-01T00:53:00;98456.69;;;10.76;100.00
8416;BME280;4245;42.120;24.732;2023-04-01T00:55:29;98463.97;;;10.95;100.00
8416;BME280;4245;42.120;24.732;2023-04-01T00:57:58;98459.97;;;10.79;100.00
8416;BME280;4245;42.120;24.732;2023-04-01T01:00:26;98458.41;;;10.98;100.00
8416;BME280;4245;42.120;24.732;2023-04-01T01:02:53;98452.81;;;11.01;100.00
8416;BME280;4245;42.120;24.732;2023-04-01T01:05:29;98450.50;;;11.07;100.00
8416;BME280;4245;42.120;24.732;2023-04-01T01:08:06;98445.75;;;11.11;100.00
8416;BME280;4245;42.120;24.732;2023-04-01T01:10:38;98442.69;;;11.15;100.00
8416;BME280;4245;42.120;24.732;2023-04-01T01:13:10;98443.59;;;11.25;99.77
8416;BME280;4245;42.120;24.732;2023-04-01T01:15:42;98449.19;;;11.22;100.00
8416;BME280;4245;42.120;24.732;2023-04-01T01:18:18;98453.31;;;11.36;98.75
8416;BME280;4245;42.120;24.732;2023-04-01T01:21:17;98450.59;;;11.26;99.80
8416;BME280;4245;42.120;24.732;2023-04-01T01:27:02;98453.56;;;11.33;98.98
8416;BME280;4245;42.120;24.732;2023-04-01T01:29:50;98443.38;;;11.38;99.75
8416;BME280;4245;42.120;24.732;2023-04-01T01:35:24;98452.63;;;11.44;97.11
8416;BME280;4245;42.120;24.732;2023-04-01T01:37:56;98442.41;;;11.39;98.40
8416;BME280;4245;42.120;24.732;2023-04-01T01:40:26;98433.13;;;11.33;99.67
8416;BME280;4245;42.120;24.732;2023-04-01T01:42:58;98432.00;;;11.26;99.69
8416;BME280;4245;42.120;24.732;2023-04-01T01:45:26;98436.47;;;11.26;100.00
8416;BME280;4245;42.120;24.732;2023-04-01T01:47:55;98439.84;;;11.38;97.57
8416;BME280;4245;42.120;24.732;2023-04-01T01:50:25;98435.03;;;11.22;97.40
8416;BME280;4245;42.120;24.732;2023-04-01T01:53:00;98437.06;;;11.09;98.71
8416;BME280;4245;42.120;24.732;2023-04-01T01:55:29;98420.34;;;10.97;99.54
8416;BME280;4245;42.120;24.732;2023-04-01T01:57:59;98411.88;;;11.03;97.59
8416;BME280;4245;42.120;24.732;2023-04-01T02:00:27;98415.16;;;10.75;99.71
8416;BME280;4245;42.120;24.732;2023-04-01T02:02:55;98410.56;;;10.56;100.00
8416;BME280;4245;42.120;24.732;2023-04-01T02:05:26;98409.72;;;10.35;100.00
8416;BME280;4245;42.120;24.732;2023-04-01T02:08:00;98411.53;;;10.34;100.00
8416;BME280;4245;42.120;24.732;2023-04-01T02:10:28;98400.44;;;10.29;100.00
8416;BME280;4245;42.120;24.732;2023-04-01T02:13:01;98395.13;;;10.29;100.00
8416;BME280;4245;42.120;24.732;2023-04-01T02:15:34;98404.03;;;10.39;100.00
8416;BME280;4245;42.120;24.732;2023-04-01T02:18:04;98399.78;;;10.16;100.00
8416;BME280;4245;42.120;24.732;2023-04-01T02:20:34;98409.75;;;10.13;100.00
8416;BME280;4245;42.120;24.732;2023-04-01T02:23:03;98415.19;;;10.22;100.00
8416;BME280;4245;42.120;24.732;2023-04-01T02:25:33;98424.00;;;10.12;100.00
8416;BME280;4245;42.120;24.732;2023-04-01T02:28:04;98415.44;;;10.19;100.00
8416;BME280;4245;42.120;24.732;2023-04-01T02:30:34;98401.78;;;10.24;100.00
8416;BME280;4245;42.120;24.732;2023-04-01T02:33:02;98393.91;;;10.33;100.00
8416;BME280;4245;42.120;24.732;2023-04-01T02:35:30;98382.41;;;10.44;100.00
8416;BME280;4245;42.120;24.732;2023-04-01T02:37:58;98388.28;;;10.48;100.00
8416;BME280;4245;42.120;24.732;2023-04-01T02:40:26;98392.25;;;10.53;100.00
8416;BME280;4245;42.120;24.732;2023-04-01T02:42:52;98384.16;;;10.55;100.00
8416;BME280;4245;42.120;24.732;2023-04-01T02:45:20;98396.31;;;10.57;100.00
8416;BME280;4245;42.120;24.732;2023-04-01T02:47:47;98396.13;;;10.70;100.00
8416;BME280;4245;42.120;24.732;2023-04-01T02:50:15;98392.25;;;10.53;100.00
8416;BME280;4245;42.120;24.732;2023-04-01T02:52:42;98398.53;;;10.52;100.00
8416;BME280;4245;42.120;24.732;2023-04-01T02:55:10;98398.97;;;10.57;100.00
8416;BME280;4245;42.120;24.732;2023-04-01T02:57:37;98398.28;;;10.55;100.00
8416;BME280;4245;42.120;24.732;2023-04-01T03:00:05;98388.81;;;10.62;100.00
8416;BME280;4245;42.120;24.732;2023-04-01T03:02:37;98389.47;;;10.55;100.00
8416;BME280;4245;42.120;24.732;2023-04-01T03:05:05;98382.59;;;10.52;100.00
8416;BME280;4245;42.120;24.732;2023-04-01T03:07:32;98375.97;;;10.46;100.00
8416;BME280;4245;42.120;24.732;2023-04-01T03:09:59;98381.97;;;10.60;100.00
8416;BME280;4245;42.120;24.732;2023-04-01T03:12:28;98388.31;;;10.68;100.00
8416;BME280;4245;42.120;24.732;2023-04-01T03:14:54;98388.63;;;10.54;100.00
8416;BME280;4245;42.120;24.732;2023-04-01T03:17:21;98391.28;;;10.54;100.00
8416;BME280;4245;42.120;24.732;2023-04-01T03:19:48;98391.06;;;10.67;100.00
8416;BME280;4245;42.120;24.732;2023-04-01T03:22:15;98393.94;;;10.54;100.00
8416;BME280;4245;42.120;24.732;2023-04-01T03:24:44;98385.59;;;10.27;100.00
8416;BME280;4245;42.120;24.732;2023-04-01T03:27:11;98375.53;;;10.21;100.00
8416;BME280;4245;42.120;24.732;2023-04-01T03:29:39;98376.75;;;10.06;100.00
8416;BME280;4245;42.120;24.732;2023-04-01T03:32:06;98374.38;;;9.91;100.00
8416;BME280;4245;42.120;24.732;2023-04-01T03:34:33;98370.81;;;9.81;100.00
8416;BME280;4245;42.120;24.732;2023-04-01T03:37:00;98361.53;;;9.76;100.00
8416;BME280;4245;42.120;24.732;2023-04-01T03:39:27;98353.84;;;9.62;100.00
8416;BME280;4245;42.120;24.732;2023-04-01T03:41:54;98346.13;;;9.58;100.00
8416;BME280;4245;42.120;24.732;2023-04-01T03:44:21;98351.19;;;9.62;100.00
8416;BME280;4245;42.120;24.732;2023-04-01T03:46:49;98357.66;;;9.69;100.00
8416;BME280;4245;42.120;24.732;2023-04-01T03:49:16;98366.16;;;9.63;100.00
8416;BME280;4245;42.120;24.732;2023-04-01T03:51:43;98370.47;;;9.64;100.00
8416;BME280;4245;42.120;24.732;2023-04-01T03:54:11;98359.50;;;9.68;100.00
8416;BME280;4245;42.120;24.732;2023-04-01T03:56:38;98362.19;;;9.57;100.00
8416;BME280;4245;42.120;24.732;2023-04-01T03:59:07;98362.03;;;9.58;100.00
8416;BME280;4245;42.120;24.732;2023-04-01T04:01:34;98350.09;;;9.64;100.00
8416;BME280;4245;42.120;24.732;2023-04-01T04:04:02;98342.00;;;9.77;100.00
8416;BME280;4245;42.120;24.732;2023-04-01T04:06:29;98342.22;;;9.74;100.00
8416;BME280;4245;42.120;24.732;2023-04-01T04:08:56;98339.63;;;9.63;100.00
8416;BME280;4245;42.120;24.732;2023-04-01T04:11:23;98351.03;;;9.74;100.00
8416;BME280;4245;42.120;24.732;2023-04-01T04:13:51;98349.69;;;9.80;100.00
8416;BME280;4245;42.120;24.732;2023-04-01T04:16:18;98339.28;;;9.88;100.00
8416;BME280;4245;42.120;24.732;2023-04-01T04:18:45;98334.78;;;9.99;100.00
8416;BME280;4245;42.120;24.732;2023-04-01T04:21:14;98342.72;;;10.11;100.00
8416;BME280;4245;42.120;24.732;2023-04-01T04:23:42;98353.81;;;10.16;100.00
8416;BME280;4245;42.120;24.732;2023-04-01T04:26:10;98350.97;;;10.28;100.00
8416;BME280;4245;42.120;24.732;2023-04-01T04:28:38;98350.22;;;10.37;100.00
8416;BME280;4245;42.120;24.732;2023-04-01T04:31:05;98347.50;;;10.49;100.00
8416;BME280;4245;42.120;24.732;2023-04-01T04:33:33;98355.41;;;10.60;100.00
8416;BME280;4245;42.120;24.732;2023-04-01T04:36:01;98351.31;;;10.56;100.00
8416;BME280;4245;42.120;24.732;2023-04-01T04:38:30;98347.63;;;10.68;100.00
8416;BME280;4245;42.120;24.732;2023-04-01T04:40:57;98355.72;;;10.66;100.00
8416;BME280;4245;42.120;24.732;2023-04-01T04:43:24;98351.41;;;10.75;100.00
8416;BME280;4245;42.120;24.732;2023-04-01T04:45:51;98348.75;;;10.75;100.00
8416;BME280;4245;42.120;24.732;2023-04-01T04:48:18;98350.50;;;10.85;100.00
8416;BME280;4245;42.120;24.732;2023-04-01T04:50:46;98353.38;;;10.94;100.00
8416;BME280;4245;42.120;24.732;2023-04-01T04:53:15;98364.28;;;11.00;100.00
8416;BME280;4245;42.120;24.732;2023-04-01T04:55:47;98372.13;;;11.02;100.00
8416;BME280;4245;42.120;24.732;2023-04-01T04:58:15;98368.34;;;11.04;100.00
8416;BME280;4245;42.120;24.732;2023-04-01T05:00:42;98365.94;;;11.22;100.00
8416;BME280;4245;42.120;24.732;2023-04-01T05:03:11;98353.22;;;11.25;100.00
8416;BME280;4245;42.120;24.732;2023-04-01T05:05:38;98354.09;;;11.36;100.00
8416;BME280;4245;42.120;24.732;2023-04-01T05:08:06;98359.38;;;11.66;100.00
8416;BME280;4245;42.120;24.732;2023-04-01T05:10:33;98365.94;;;11.71;100.00
8416;BME280;4245;42.120;24.732;2023-04-01T05:13:01;98362.34;;;11.82;100.00
8416;BME280;4245;42.120;24.732;2023-04-01T05:15:28;98360.97;;;11.88;99.83
8416;BME280;4245;42.120;24.732;2023-04-01T05:17:55;98361.69;;;11.99;98.72
8416;BME280;4245;42.120;24.732;2023-04-01T05:20:22;98356.38;;;12.09;97.42
8416;BME280;4245;42.120;24.732;2023-04-01T05:22:49;98352.56;;;12.11;97.48
8416;BME280;4245;42.120;24.732;2023-04-01T05:25:16;98344.75;;;12.19;100.00
8416;BME280;4245;42.120;24.732;2023-04-01T05:27:42;98341.38;;;12.17;100.00
8416;BME280;4245;42.120;24.732;2023-04-01T05:30:11;98343.31;;;12.35;97.79
8416;BME280;4245;42.120;24.732;2023-04-01T05:32:38;98345.16;;;12.44;95.08
8416;BME280;4245;42.120;24.732;2023-04-01T05:35:06;98340.22;;;12.10;97.09
8416;BME280;4245;42.120;24.732;2023-04-01T05:37:33;98334.47;;;11.96;99.83
8416;BME280;4245;42.120;24.732;2023-04-01T05:40:00;98319.94;;;12.00;98.88
8416;BME280;4245;42.120;24.732;2023-04-01T05:42:28;98311.25;;;11.98;99.50
8416;BME280;4245;42.120;24.732;2023-04-01T05:44:55;98313.63;;;12.01;99.76
8416;BME280;4245;42.120;24.732;2023-04-01T05:47:23;98303.97;;;12.00;100.00
8416;BME280;4245;42.120;24.732;2023-04-01T05:49:50;98298.78;;;12.08;99.23
8416;BME280;4245;42.120;24.732;2023-04-01T05:52:17;98286.59;;;12.05;99.24
8416;BME280;4245;42.120;24.732;2023-04-01T05:54:44;98283.91;;;12.05;100.00
8416;BME280;4245;42.120;24.732;2023-04-01T05:57:11;98284.75;;;11.96;100.00
8416;BME280;4245;42.120;24.732;2023-04-01T05:59:38;98273.44;;;12.04;100.00
8416;BME280;4245;42.120;24.732;2023-04-01T06:02:04;98290.78;;;12.17;100.00
8416;BME280;4245;42.120;24.732;2023-04-01T06:04:37;98279.31;;;12.17;100.00
8416;BME280;4245;42.120;24.732;2023-04-01T06:07:11;98292.88;;;12.43;97.03
8416;BME280;4245;42.120;24.732;2023-04-01T06:09:38;98292.03;;;12.33;97.69
8416;BME280;4245;42.120;24.732;2023-04-01T06:12:22;98273.09;;;12.36;98.30
8416;BME280;4245;42.120;24.732;2023-04-01T06:14:59;98257.66;;;12.39;98.82
8416;BME280;4245;42.120;24.732;2023-04-01T06:17:40;98235.91;;;12.63;96.14
8416;BME280;4245;42.120;24.732;2023-04-01T06:20:16;98234.88;;;12.64;95.51
8416;BME280;4245;42.120;24.732;2023-04-01T06:22:55;98247.50;;;12.72;95.80
8416;BME280;4245;42.120;24.732;2023-04-01T06:25:45;98244.75;;;12.91;94.11
8416;BME280;4245;42.120;24.732;2023-04-01T06:28:39;98248.66;;;12.96;94.28
8416;BME280;4245;42.120;24.732;2023-04-01T06:31:14;98257.13;;;13.10;92.75
8416;BME280;4245;42.120;24.732;2023-04-01T06:33:51;98257.72;;;13.13;93.10
8416;BME280;4245;42.120;24.732;2023-04-01T06:36:41;98249.97;;;13.20;92.39
8416;BME280;4245;42.120;24.732;2023-04-01T06:39:23;98248.16;;;13.20;92.14
8416;BME280;4245;42.120;24.732;2023-04-01T06:42:03;98250.84;;;13.38;91.09
8416;BME280;4245;42.120;24.732;2023-04-01T06:47:18;98251.97;;;13.35;91.60
8416;BME280;4245;42.120;24.732;2023-04-01T06:49:53;98250.50;;;13.51;91.46
8416;BME280;4245;42.120;24.732;2023-04-01T06:52:28;98248.69;;;13.41;93.40
8416;BME280;4245;42.120;24.732;2023-04-01T06:55:03;98263.91;;;13.76;90.66
8416;BME280;4245;42.120;24.732;2023-04-01T06:57:41;98253.16;;;13.86;88.96
8416;BME280;4245;42.120;24.732;2023-04-01T07:00:14;98264.97;;;13.83;89.60
8416;BME280;4245;42.120;24.732;2023-04-01T07:02:48;98274.88;;;13.91;88.93
8416;BME280;4245;42.120;24.732;2023-04-01T07:05:19;98275.72;;;13.74;91.08
8416;BME280;4245;42.120;24.732;2023-04-01T07:07:50;98263.59;;;13.97;94.07
8416;BME280;4245;42.120;24.732;2023-04-01T07:10:23;98247.88;;;14.12;91.73
8416;BME280;4245;42.120;24.732;2023-04-01T07:12:56;98236.94;;;14.23;92.42
8416;BME280;4245;42.120;24.732;2023-04-01T07:15:29;98237.44;;;14.44;89.01
8416;BME280;4245;42.120;24.732;2023-04-01T07:18:01;98236.88;;;14.58;86.46
8416;BME280;4245;42.120;24.732;2023-04-01T07:20:30;98228.19;;;14.56;87.40
8416;BME280;4245;42.120;24.732;2023-04-01T07:23:01;98224.47;;;14.83;84.83
8416;BME280;4245;42.120;24.732;2023-04-01T07:25:33;98216.59;;;14.82;86.46
8416;BME280;4245;42.120;24.732;2023-04-01T07:28:02;98221.53;;;15.02;87.46
8416;BME280;4245;42.120;24.732;2023-04-01T07:30:39;98210.72;;;15.12;82.56
8416;BME280;4245;42.120;24.732;2023-04-01T07:33:13;98206.00;;;14.98;83.09
8416;BME280;4245;42.120;24.732;2023-04-01T07:35:47;98213.53;;;15.10;82.30
8416;BME280;4245;42.120;24.732;2023-04-01T07:38:28;98220.41;;;15.05;83.34
8416;BME280;4245;42.120;24.732;2023-04-01T07:41:05;98216.56;;;15.07;82.96
8416;BME280;4245;42.120;24.732;2023-04-01T07:43:43;98211.53;;;15.04;82.94
8416;BME280;4245;42.120;24.732;2023-04-01T07:46:24;98211.22;;;15.07;83.62
8416;BME280;4245;42.120;24.732;2023-04-01T07:48:59;98207.91;;;15.13;83.74
8416;BME280;4245;42.120;24.732;2023-04-01T07:51:33;98208.13;;;15.36;83.09
8416;BME280;4245;42.120;24.732;2023-04-01T07:54:08;98207.41;;;15.26;83.25
8416;BME280;4245;42.120;24.732;2023-04-01T07:56:41;98212.31;;;15.47;82.53
8416;BME280;4245;42.120;24.732;2023-04-01T07:59:16;98210.22;;;15.67;80.82
8416;BME280;4245;42.120;24.732;2023-04-01T08:01:49;98216.91;;;15.62;81.06
8416;BME280;4245;42.120;24.732;2023-04-01T08:04:37;98196.84;;;15.58;81.61
8416;BME280;4245;42.120;24.732;2023-04-01T08:07:11;98202.19;;;15.58;81.88
8416;BME280;4245;42.120;24.732;2023-04-01T08:09:47;98197.97;;;15.64;81.93
8416;BME280;4245;42.120;24.732;2023-04-01T08:12:27;98195.16;;;15.65;82.31
8416;BME280;4245;42.120;24.732;2023-04-01T08:15:07;98186.47;;;15.72;81.35
8416;BME280;4245;42.120;24.732;2023-04-01T08:17:43;98176.91;;;15.69;81.02
8416;BME280;4245;42.120;24.732;2023-04-01T08:20:28;98171.69;;;15.43;82.20
8416;BME280;4245;42.120;24.732;2023-04-01T08:22:59;98160.44;;;15.40;82.68
8416;BME280;4245;42.120;24.732;2023-04-01T08:25:29;98168.97;;;15.35;82.88
8416;BME280;4245;42.120;24.732;2023-04-01T08:28:00;98162.63;;;15.28;83.20
8416;BME280;4245;42.120;24.732;2023-04-01T08:30:36;98157.22;;;15.12;84.93
8416;BME280;4245;42.120;24.732;2023-04-01T08:33:12;98155.59;;;15.27;84.29
8416;BME280;4245;42.120;24.732;2023-04-01T08:35:46;98150.88;;;15.21;85.23
8416;BME280;4245;42.120;24.732;2023-04-01T08:38:18;98146.41;;;15.46;84.09
8416;BME280;4245;42.120;24.732;2023-04-01T08:40:59;98148.81;;;15.65;83.39
8416;BME280;4245;42.120;24.732;2023-04-01T08:46:54;98132.66;;;16.22;82.71
8416;BME280;4245;42.120;24.732;2023-04-01T08:49:57;98126.50;;;16.76;80.98
8416;BME280;4245;42.120;24.732;2023-04-01T08:52:35;98127.31;;;17.16;77.01
8416;BME280;4245;42.120;24.732;2023-04-01T08:55:36;98118.31;;;17.77;76.71
8416;BME280;4245;42.120;24.732;2023-04-01T08:58:24;98116.66;;;18.13;76.80
8416;BME280;4245;42.120;24.732;2023-04-01T09:00:55;98107.22;;;18.61;70.95
8416;BME280;4245;42.120;24.732;2023-04-01T09:03:47;98107.06;;;18.63;68.90
8416;BME280;4245;42.120;24.732;2023-04-01T09:06:44;98102.50;;;18.63;69.27
8416;BME280;4245;42.120;24.732;2023-04-01T09:09:43;98092.09;;;18.46;68.34
8416;BME280;4245;42.120;24.732;2023-04-01T09:12:26;98081.16;;;18.47;66.87
8416;BME280;4245;42.120;24.732;2023-04-01T09:21:54;98073.81;;;18.71;68.45
8416;BME280;4245;42.120;24.732;2023-04-01T09:24:43;98060.03;;;18.30;67.61
8416;BME280;4245;42.120;24.732;2023-04-01T09:27:20;98055.00;;;18.27;70.38
8416;BME280;4245;42.120;24.732;2023-04-01T09:30:13;98039.34;;;18.15;71.66
8416;BME280;4245;42.120;24.732;2023-04-01T09:35:40;98043.97;;;18.51;71.35
8416;BME280;4245;42.120;24.732;2023-04-01T09:38:20;98043.06;;;18.94;68.21
8416;BME280;4245;42.120;24.732;2023-04-01T09:40:54;98029.69;;;19.22;65.49
8416;BME280;4245;42.120;24.732;2023-04-01T09:43:30;98031.28;;;19.38;67.68
8416;BME280;4245;42.120;24.732;2023-04-01T09:46:23;98033.94;;;19.52;73.44
8416;BME280;4245;42.120;24.732;2023-04-01T09:49:12;98041.75;;;19.69;74.33
8416;BME280;4245;42.120;24.732;2023-04-01T09:51:51;98040.06;;;19.95;74.13
8416;BME280;4245;42.120;24.732;2023-04-01T09:54:34;98040.03;;;19.89;69.30
8416;BME280;4245;42.120;24.732;2023-04-01T10:00:37;98015.91;;;20.09;76.05
8416;BME280;4245;42.120;24.732;2023-04-01T10:03:38;98012.44;;;20.62;66.55
8416;BME280;4245;42.120;24.732;2023-04-01T10:06:58;98014.94;;;20.64;61.03
8416;BME280;4245;42.120;24.732;2023-04-01T10:12:58;97992.91;;;20.19;57.29
8416;BME280;4245;42.120;24.732;2023-04-01T10:15:38;97979.38;;;19.72;62.28
8416;BME280;4245;42.120;24.732;2023-04-01T10:18:32;97979.81;;;19.47;65.08
8416;BME280;4245;42.120;24.732;2023-04-01T10:21:28;97968.03;;;19.48;62.31
8416;BME280;4245;42.120;24.732;2023-04-01T10:27:09;97942.19;;;19.61;64.00
8416;BME280;4245;42.120;24.732;2023-04-01T10:30:23;97942.94;;;19.27;66.01
8416;BME280;4245;42.120;24.732;2023-04-01T10:33:14;97945.03;;;19.46;60.47
8416;BME280;4245;42.120;24.732;2023-04-01T10:36:24;97958.53;;;19.31;62.31
8416;BME280;4245;42.120;24.732;2023-04-01T10:42:25;97920.63;;;19.54;64.53
8416;BME280;4245;42.120;24.732;2023-04-01T10:45:18;97916.56;;;19.71;65.59
8416;BME280;4245;42.120;24.732;2023-04-01T10:48:24;97901.81;;;20.02;61.38
8416;BME280;4245;42.120;24.732;2023-04-01T10:51:25;97876.63;;;19.81;60.91
8416;BME280;4245;42.120;24.732;2023-04-01T10:54:15;97891.06;;;20.08;63.33
8416;BME280;4245;42.120;24.732;2023-04-01T10:56:55;97870.66;;;20.40;58.61
8416;BME280;4245;42.120;24.732;2023-04-01T11:03:02;97859.38;;;19.69;60.47
8416;BME280;4245;42.120;24.732;2023-04-01T11:12:14;97848.69;;;19.20;65.37
8416;BME280;4245;42.120;24.732;2023-04-01T11:24:09;97828.13;;;19.81;59.79
8416;BME280;4245;42.120;24.732;2023-04-01T11:26:50;97825.03;;;20.52;57.81
8416;BME280;4245;42.120;24.732;2023-04-01T11:29:36;97818.00;;;21.30;55.90
8416;BME280;4245;42.120;24.732;2023-04-01T11:32:20;97827.53;;;22.41;52.38
8416;BME280;4245;42.120;24.732;2023-04-01T11:35:00;97826.38;;;22.86;49.94
8416;BME280;4245;42.120;24.732;2023-04-01T11:37:38;97826.22;;;22.81;48.73
8416;BME280;4245;42.120;24.732;2023-04-01T11:40:19;97815.59;;;22.48;49.58
8416;BME280;4245;42.120;24.732;2023-04-01T11:42:53;97805.84;;;22.16;50.43
8416;BME280;4245;42.120;24.732;2023-04-01T11:45:32;97798.50;;;22.54;50.50
8416;BME280;4245;42.120;24.732;2023-04-01T11:48:18;97789.84;;;23.38;47.83
8416;BME280;4245;42.120;24.732;2023-04-01T11:51:17;97794.63;;;23.79;45.07
8416;BME280;4245;42.120;24.732;2023-04-01T11:53:58;97799.91;;;23.13;46.86
8416;BME280;4245;42.120;24.732;2023-04-01T11:56:48;97793.06;;;21.85;50.57
8416;BME280;4245;42.120;24.732;2023-04-01T11:59:37;97796.03;;;21.64;51.59
8416;BME280;4245;42.120;24.732;2023-04-01T12:02:11;97789.09;;;21.30;52.79
8416;BME280;4245;42.120;24.732;2023-04-01T12:05:14;97791.44;;;20.80;54.83
8416;BME280;4245;42.120;24.732;2023-04-01T12:07:56;97784.31;;;20.14;58.06
8416;BME280;4245;42.120;24.732;2023-04-01T12:10:34;97782.66;;;20.26;57.70
8416;BME280;4245;42.120;24.732;2023-04-01T12:13:13;97785.88;;;19.88;58.54
8416;BME280;4245;42.120;24.732;2023-04-01T12:15:55;97781.63;;;19.60;60.42
8416;BME280;4245;42.120;24.732;2023-04-01T12:18:33;97754.34;;;19.35;61.85
8416;BME280;4245;42.120;24.732;2023-04-01T12:21:07;97757.03;;;19.35;62.01
8416;BME280;4245;42.120;24.732;2023-04-01T12:23:47;97740.53;;;20.12;59.58
8416;BME280;4245;42.120;24.732;2023-04-01T12:26:43;97715.38;;;21.16;55.24
8416;BME280;4245;42.120;24.732;2023-04-01T12:29:57;97718.78;;;21.94;53.49
8416;BME280;4245;42.120;24.732;2023-04-01T12:32:34;97717.16;;;22.49;50.96
8416;BME280;4245;42.120;24.732;2023-04-01T12:35:15;97719.03;;;23.53;48.17
8416;BME280;4245;42.120;24.732;2023-04-01T12:37:50;97721.22;;;23.93;46.80
8416;BME280;4245;42.120;24.732;2023-04-01T12:40:45;97709.78;;;23.61;47.47
8416;BME280;4245;42.120;24.732;2023-04-01T12:43:34;97697.19;;;23.96;47.63
8416;BME280;4245;42.120;24.732;2023-04-01T12:46:13;97697.81;;;24.40;44.86
8416;BME280;4245;42.120;24.732;2023-04-01T12:49:07;97692.38;;;22.95;48.48
8416;BME280;4245;42.120;24.732;2023-04-01T12:51:58;97679.06;;;21.95;52.25
8416;BME280;4245;42.120;24.732;2023-04-01T12:57:53;97675.75;;;21.93;52.84
8416;BME280;4245;42.120;24.732;2023-04-01T13:00:39;97685.84;;;22.10;52.52
8416;BME280;4245;42.120;24.732;2023-04-01T13:03:32;97681.78;;;21.95;52.70
8416;BME280;4245;42.120;24.732;2023-04-01T13:06:25;97680.34;;;21.86;53.35
8416;BME280;4245;42.120;24.732;2023-04-01T13:09:01;97693.19;;;22.96;49.53
8416;BME280;4245;42.120;24.732;2023-04-01T13:11:40;97665.28;;;22.95;48.81
8416;BME280;4245;42.120;24.732;2023-04-01T13:14:27;97663.63;;;22.76;48.76
8416;BME280;4245;42.120;24.732;2023-04-01T13:17:10;97655.59;;;22.20;50.71
8416;BME280;4245;42.120;24.732;2023-04-01T13:19:45;97666.00;;;22.41;49.96
8416;BME280;4245;42.120;24.732;2023-04-01T13:22:21;97660.31;;;22.00;51.25
8416;BME280;4245;42.120;24.732;2023-04-01T13:24:55;97683.38;;;21.64;51.50
8416;BME280;4245;42.120;24.732;2023-04-01T13:27:29;97679.63;;;21.21;52.25
8416;BME280;4245;42.120;24.732;2023-04-01T13:30:12;97676.66;;;19.99;56.42
8416;BME280;4245;42.120;24.732;2023-04-01T13:32:50;97725.31;;;19.65;58.28
8416;BME280;4245;42.120;24.732;2023-04-01T13:35:31;97783.78;;;19.43;59.09
8416;BME280;4245;42.120;24.732;2023-04-01T13:38:16;97812.34;;;18.75;61.63
8416;BME280;4245;42.120;24.732;2023-04-01T13:40:51;97802.63;;;18.32;64.30
8416;BME280;4245;42.120;24.732;2023-04-01T13:43:25;97816.72;;;17.98;65.80
8416;BME280;4245;42.120;24.732;2023-04-01T13:46:12;97835.94;;;17.80;66.99
8416;BME280;4245;42.120;24.732;2023-04-01T13:49:06;97839.28;;;17.67;69.19
8416;BME280;4245;42.120;24.732;2023-04-01T13:55:00;97882.13;;;17.17;71.97
8416;BME280;4245;42.120;24.732;2023-04-01T13:57:52;97875.63;;;17.11;73.07
8416;BME280;4245;42.120;24.732;2023-04-01T14:00:36;97890.72;;;17.12;75.66
8416;BME280;4245;42.120;24.732;2023-04-01T14:03:30;97904.28;;;16.96;78.75
8416;BME280;4245;42.120;24.732;2023-04-01T14:06:26;97926.22;;;16.77;85.25
8416;BME280;4245;42.120;24.732;2023-04-01T14:09:26;97942.44;;;16.52;89.12
8416;BME280;4245;42.120;24.732;2023-04-01T14:12:05;97942.72;;;16.04;92.41
8416;BME280;4245;42.120;24.732;2023-04-01T14:14:43;97949.78;;;15.97;95.08
8416;BME280;4245;42.120;24.732;2023-04-01T14:17:21;97953.13;;;15.99;95.70
8416;BME280;4245;42.120;24.732;2023-04-01T14:20:27;97962.94;;;16.15;91.95
8416;BME280;4245;42.120;24.732;2023-04-01T14:23:13;97951.94;;;16.40;89.23
8416;BME280;4245;42.120;24.732;2023-04-01T14:28:51;97938.94;;;16.83;82.06
8416;BME280;4245;42.120;24.732;2023-04-01T14:31:47;97934.88;;;16.87;84.13
8416;BME280;4245;42.120;24.732;2023-04-01T14:34:42;97905.69;;;17.07;80.89
8416;BME280;4245;42.120;24.732;2023-04-01T14:37:19;97911.00;;;17.29;79.64
8416;BME280;4245;42.120;24.732;2023-04-01T14:43:25;97900.19;;;16.63;80.49
8416;BME280;4245;42.120;24.732;2023-04-01T14:46:06;97878.28;;;16.51;82.96
8416;BME280;4245;42.120;24.732;2023-04-01T14:48:38;97865.50;;;16.38;84.05
8416;BME280;4245;42.120;24.732;2023-04-01T14:51:13;97864.59;;;16.23;83.81
8416;BME280;4245;42.120;24.732;2023-04-01T14:53:44;97872.00;;;16.21;84.72
8416;BME280;4245;42.120;24.732;2023-04-01T14:56:36;97862.91;;;16.22;83.15
8416;BME280;4245;42.120;24.732;2023-04-01T14:59:09;97874.50;;;16.45;83.52
8416;BME280;4245;42.120;24.732;2023-04-01T15:01:44;97879.44;;;16.57;84.52